createdAt,value
2019-04-01T00:00:35.644Z,2.24
2019-04-01T00:01:35.657Z,2.18
2019-04-01T00:02:35.624Z,2.20
2019-04-01T00:03:35.681Z,2.04
2019-04-01T00:04:35.607Z,2.00
2019-04-01T00:05:35.595Z,2.00
2019-04-01T00:06:35.583Z,1.89
2019-04-01T00:07:35.587Z,1.91
2019-04-01T00:08:35.559Z,1.77
2019-04-01T00:09:35.564Z,1.77
2019-04-01T00:10:35.555Z,1.68
2019-04-01T00:11:35.529Z,1.71
2019-04-01T00:12:35.524Z,1.68
2019-04-01T00:13:35.503Z,1.67
2019-04-01T00:14:35.496Z,1.62
2019-04-01T00:15:35.505Z,1.63
2019-04-01T00:16:35.478Z,1.74
2019-04-01T00:17:35.467Z,1.73
2019-04-01T00:18:35.457Z,1.73
2019-04-01T00:19:35.460Z,1.70
2019-04-01T00:20:35.447Z,1.63
2019-04-01T00:21:35.417Z,1.68
2019-04-01T00:22:35.499Z,1.58
2019-04-01T00:23:35.401Z,1.58
2019-04-01T00:24:35.415Z,1.59
2019-04-01T00:25:35.383Z,1.59
2019-04-01T00:26:35.370Z,1.63
2019-04-01T00:27:35.366Z,1.59
2019-04-01T00:28:35.348Z,1.63
2019-04-01T00:29:35.342Z,1.60
2019-04-01T00:30:35.358Z,1.67
2019-04-01T00:31:35.315Z,1.66
2019-04-01T00:32:35.300Z,1.59
2019-04-01T00:33:35.290Z,1.49
2019-04-01T00:34:35.282Z,1.59
2019-04-01T00:35:35.272Z,1.53
2019-04-01T00:36:35.282Z,1.50
2019-04-01T00:37:35.254Z,1.45
2019-04-01T00:38:35.240Z,1.35
2019-04-01T00:39:35.252Z,1.44
2019-04-01T00:40:35.214Z,1.41
2019-04-01T00:41:35.220Z,1.41
2019-04-01T00:42:35.196Z,1.34
2019-04-01T00:43:35.187Z,1.34
2019-04-01T00:44:35.202Z,1.32
2019-04-01T00:45:35.161Z,1.31
2019-04-01T00:46:35.155Z,1.31
2019-04-01T00:47:35.162Z,1.22
2019-04-01T00:48:35.135Z,1.23
2019-04-01T00:49:35.126Z,1.08
2019-04-01T00:50:35.130Z,1.05
2019-04-01T00:51:35.102Z,1.16
2019-04-01T00:52:35.090Z,1.08
2019-04-01T00:53:35.086Z,1.08
2019-04-01T00:54:35.075Z,1.10
2019-04-01T00:55:35.074Z,1.06
2019-04-01T00:56:35.043Z,1.10
2019-04-01T00:57:35.032Z,1.06
2019-04-01T00:58:35.024Z,1.01
2019-04-01T00:59:35.018Z,0.99
2019-04-01T01:00:35.030Z,1.13
2019-04-01T01:01:34.990Z,1.04
2019-04-01T01:02:34.982Z,1.13
2019-04-01T01:03:34.973Z,1.04
2019-04-01T01:04:34.964Z,1.05
2019-04-01T01:05:34.956Z,1.06
2019-04-01T01:06:34.966Z,1.08
2019-04-01T01:07:34.927Z,1.08
2019-04-01T01:08:34.915Z,1.17
2019-04-01T01:09:34.904Z,1.14
2019-04-01T01:10:34.913Z,1.06
2019-04-01T01:11:34.887Z,1.16
2019-04-01T01:12:34.885Z,1.13
2019-04-01T01:13:34.871Z,1.16
2019-04-01T01:14:34.855Z,1.08
2019-04-01T01:15:34.874Z,1.06
2019-04-01T01:16:34.831Z,0.99
2019-04-01T01:17:34.828Z,1.05
2019-04-01T01:18:34.813Z,1.10
2019-04-01T01:19:34.804Z,1.05
2019-04-01T01:20:34.787Z,1.10
2019-04-01T01:21:34.795Z,1.06
2019-04-01T01:22:34.768Z,1.06
2019-04-01T01:23:34.760Z,0.99
2019-04-01T01:24:34.750Z,0.88
2019-04-01T01:25:34.764Z,0.91
2019-04-01T01:26:34.730Z,0.84
2019-04-01T01:27:34.714Z,0.88
2019-04-01T01:28:34.702Z,0.94
2019-04-01T01:29:34.711Z,0.88
2019-04-01T01:30:34.681Z,1.02
2019-04-01T01:31:34.710Z,0.88
2019-04-01T01:32:34.664Z,0.94
2019-04-01T01:33:34.650Z,0.84
2019-04-01T01:34:34.646Z,0.87
2019-04-01T01:35:34.630Z,0.95
2019-04-01T01:36:34.622Z,1.01
2019-04-01T01:37:34.630Z,1.12
2019-04-01T01:38:34.599Z,1.08
2019-04-01T01:39:34.589Z,1.04
2019-04-01T01:40:34.572Z,1.12
2019-04-01T01:41:34.580Z,1.06
2019-04-01T01:42:34.557Z,1.10
2019-04-01T01:43:34.558Z,1.06
2019-04-01T01:44:34.539Z,1.04
2019-04-01T01:45:34.528Z,1.06
2019-04-01T01:46:34.535Z,1.08
2019-04-01T01:47:34.506Z,1.02
2019-04-01T01:48:34.509Z,1.01
2019-04-01T01:49:34.483Z,0.96
2019-04-01T01:50:34.471Z,1.02
2019-04-01T01:51:34.475Z,0.91
2019-04-01T01:52:34.444Z,0.87
2019-04-01T01:53:34.434Z,0.95
2019-04-01T01:54:34.443Z,0.84
2019-04-01T01:55:34.417Z,0.78
2019-04-01T01:56:34.411Z,0.68
2019-04-01T01:57:34.395Z,0.66
2019-04-01T01:58:34.387Z,0.65
2019-04-01T01:59:34.388Z,0.63
2019-04-01T02:00:34.361Z,0.62
2019-04-01T02:01:34.351Z,0.62
2019-04-01T02:02:34.339Z,0.63
2019-04-01T02:03:34.345Z,0.62
2019-04-01T02:04:34.339Z,0.59
2019-04-01T02:05:34.308Z,0.68
2019-04-01T02:06:34.295Z,0.60
2019-04-01T02:07:34.290Z,0.59
2019-04-01T02:08:34.279Z,0.58
2019-04-01T02:09:34.291Z,0.58
2019-04-01T02:10:34.259Z,0.43
2019-04-01T02:11:34.244Z,0.43
2019-04-01T02:12:34.233Z,0.26
2019-04-01T02:13:34.223Z,0.25
2019-04-01T02:14:34.215Z,0.29
2019-04-01T02:15:34.223Z,0.21
2019-04-01T02:16:34.215Z,0.32
2019-04-01T02:17:34.199Z,0.19
2019-04-01T02:18:34.175Z,0.21
2019-04-01T02:19:34.158Z,0.12
2019-04-01T02:20:34.147Z,0.07
2019-04-01T02:21:34.139Z,0.05
2019-04-01T02:22:34.223Z,-0.02
2019-04-01T02:23:34.123Z,-0.02
2019-04-01T02:24:34.106Z,-0.03
2019-04-01T02:25:34.097Z,-0.14
2019-04-01T02:26:34.080Z,-0.18
2019-04-01T02:27:34.102Z,-0.20
2019-04-01T02:28:34.068Z,-0.35
2019-04-01T02:29:34.056Z,-0.34
2019-04-01T02:30:34.044Z,-0.49
2019-04-01T02:31:34.034Z,-0.44
2019-04-01T02:32:34.018Z,-0.41
2019-04-01T02:33:34.026Z,-0.52
2019-04-01T02:34:33.995Z,-0.46
2019-04-01T02:35:33.994Z,-0.59
2019-04-01T02:36:33.977Z,-0.59
2019-04-01T02:37:33.967Z,-0.56
2019-04-01T02:38:33.978Z,-0.65
2019-04-01T02:39:33.954Z,-0.70
2019-04-01T02:40:33.941Z,-0.72
2019-04-01T02:41:33.925Z,-0.71
2019-04-01T02:42:33.914Z,-0.82
2019-04-01T02:43:33.896Z,-0.70
2019-04-01T02:44:34.055Z,-0.82
2019-04-01T02:45:33.879Z,-0.78
2019-04-01T02:46:33.873Z,-0.82
2019-04-01T02:47:33.861Z,-0.85
2019-04-01T02:48:33.851Z,-0.91
2019-04-01T02:49:33.838Z,-0.83
2019-04-01T02:50:33.881Z,-0.78
2019-04-01T02:51:33.825Z,-0.83
2019-04-01T02:52:33.802Z,-0.70
2019-04-01T02:53:33.802Z,-0.70
2019-04-01T02:54:33.787Z,-0.75
2019-04-01T02:55:33.795Z,-0.75
2019-04-01T02:56:33.758Z,-0.80
2019-04-01T02:57:33.769Z,-0.77
2019-04-01T02:58:33.758Z,-0.78
2019-04-01T02:59:33.731Z,-0.80
2019-04-01T03:00:33.724Z,-0.80
2019-04-01T03:01:33.706Z,-0.82
2019-04-01T03:02:33.716Z,-0.89
2019-04-01T03:03:33.685Z,-0.97
2019-04-01T03:04:33.674Z,-0.91
2019-04-01T03:05:33.664Z,-0.93
2019-04-01T03:06:33.691Z,-0.94
2019-04-01T03:07:33.648Z,-0.91
2019-04-01T03:08:33.631Z,-0.94
2019-04-01T03:09:33.643Z,-1.07
2019-04-01T03:10:33.604Z,-1.05
2019-04-01T03:11:33.604Z,-1.09
2019-04-01T03:12:33.591Z,-1.12
2019-04-01T03:13:33.593Z,-1.08
2019-04-01T03:14:33.569Z,-1.17
2019-04-01T03:15:33.555Z,-1.19
2019-04-01T03:16:33.542Z,-1.19
2019-04-01T03:17:33.535Z,-1.23
2019-04-01T03:18:33.535Z,-1.29
2019-04-01T03:19:33.516Z,-1.01
2019-04-01T03:20:33.500Z,-1.02
2019-04-01T03:21:33.490Z,-0.93
2019-04-01T03:22:33.497Z,-1.04
2019-04-01T03:23:33.463Z,-1.09
2019-04-01T03:24:33.459Z,-1.07
2019-04-01T03:25:33.468Z,-1.09
2019-04-01T03:26:33.440Z,-1.22
2019-04-01T03:27:33.446Z,-1.08
2019-04-01T03:28:33.471Z,-1.20
2019-04-01T03:29:33.404Z,-1.15
2019-04-01T03:30:33.452Z,-1.20
2019-04-01T03:31:33.435Z,-1.25
2019-04-01T03:32:33.380Z,-1.20
2019-04-01T03:33:33.411Z,-1.20
2019-04-01T03:34:33.367Z,-1.23
2019-04-01T03:35:33.358Z,-1.29
2019-04-01T03:36:33.329Z,-1.29
2019-04-01T03:37:33.316Z,-1.32
2019-04-01T03:38:33.307Z,-1.38
2019-04-01T03:39:33.333Z,-1.41
2019-04-01T03:40:33.296Z,-1.40
2019-04-01T03:41:33.284Z,-1.44
2019-04-01T03:42:33.265Z,-1.51
2019-04-01T03:43:33.257Z,-1.51
2019-04-01T03:44:33.268Z,-1.48
2019-04-01T03:45:33.244Z,-1.47
2019-04-01T03:46:33.233Z,-1.46
2019-04-01T03:47:33.218Z,-1.61
2019-04-01T03:48:33.201Z,-1.46
2019-04-01T03:49:33.212Z,-1.53
2019-04-01T03:50:33.182Z,-1.58
2019-04-01T03:51:33.171Z,-1.59
2019-04-01T03:52:33.166Z,-1.61
2019-04-01T03:53:33.147Z,-1.58
2019-04-01T03:54:33.142Z,-1.61
2019-04-01T03:55:33.141Z,-1.61
2019-04-01T03:56:33.114Z,-1.65
2019-04-01T03:57:33.115Z,-1.56
2019-04-01T03:58:33.107Z,-1.71
2019-04-01T03:59:33.092Z,-1.68
2019-04-01T04:00:33.095Z,-1.76
2019-04-01T04:01:33.060Z,-1.71
2019-04-01T04:02:33.048Z,-1.79
2019-04-01T04:03:33.055Z,-1.79
2019-04-01T04:04:33.049Z,-1.86
2019-04-01T04:05:33.071Z,-1.92
2019-04-01T04:06:33.019Z,-1.87
2019-04-01T04:07:32.998Z,-1.84
2019-04-01T04:08:33.007Z,-1.82
2019-04-01T04:09:32.975Z,-1.97
2019-04-01T04:10:32.976Z,-2.00
2019-04-01T04:11:32.976Z,-2.01
2019-04-01T04:12:32.947Z,-2.01
2019-04-01T04:13:32.941Z,-1.98
2019-04-01T04:14:32.937Z,-2.00
2019-04-01T04:15:32.922Z,-2.10
2019-04-01T04:16:32.905Z,-2.19
2019-04-01T04:17:32.896Z,-2.15
2019-04-01T04:18:32.905Z,-2.19
2019-04-01T04:19:32.889Z,-2.25
2019-04-01T04:20:32.896Z,-2.16
2019-04-01T04:21:32.856Z,-2.21
2019-04-01T04:22:32.841Z,-2.23
2019-04-01T04:23:32.833Z,-2.19
2019-04-01T04:24:32.821Z,-2.37
2019-04-01T04:25:32.807Z,-2.25
2019-04-01T04:26:32.877Z,-2.32
2019-04-01T04:27:32.784Z,-2.25
2019-04-01T04:28:32.774Z,-2.32
2019-04-01T04:29:32.777Z,-2.28
2019-04-01T04:30:32.791Z,-2.19
2019-04-01T04:31:32.741Z,-2.25
2019-04-01T04:32:32.876Z,-2.21
2019-04-01T04:33:32.721Z,-2.30
2019-04-01T04:34:32.709Z,-2.32
2019-04-01T04:35:32.721Z,-2.35
2019-04-01T04:36:32.704Z,-2.30
2019-04-01T04:37:32.685Z,-2.28
2019-04-01T04:38:32.675Z,-2.35
2019-04-01T04:39:32.660Z,-2.38
2019-04-01T04:40:32.673Z,-2.42
2019-04-01T04:41:32.918Z,-2.45
2019-04-01T04:42:32.703Z,-2.42
2019-04-01T04:43:32.813Z,-2.40
2019-04-01T04:44:32.666Z,-2.38
2019-04-01T04:45:32.597Z,-2.34
2019-04-01T04:46:32.608Z,-2.32
2019-04-01T04:47:32.580Z,-2.40
2019-04-01T04:48:32.580Z,-2.45
2019-04-01T04:49:32.555Z,-2.52
2019-04-01T04:50:32.569Z,-2.45
2019-04-01T04:51:32.530Z,-2.53
2019-04-01T04:52:32.524Z,-2.58
2019-04-01T04:53:32.511Z,-2.44
2019-04-01T04:54:32.497Z,-2.63
2019-04-01T04:55:32.515Z,-2.55
2019-04-01T04:56:32.504Z,-2.63
2019-04-01T04:57:32.471Z,-2.77
2019-04-01T04:58:32.477Z,-2.76
2019-04-01T04:59:32.484Z,-2.74
2019-04-01T05:00:32.437Z,-2.69
2019-04-01T05:01:32.431Z,-2.81
2019-04-01T05:02:32.450Z,-2.81
2019-04-01T05:03:32.410Z,-2.71
2019-04-01T05:04:32.423Z,-2.76
2019-04-01T05:05:32.386Z,-2.78
2019-04-01T05:06:32.386Z,-2.77
2019-04-01T05:07:32.389Z,-2.71
2019-04-01T05:08:32.366Z,-2.66
2019-04-01T05:09:32.349Z,-2.70
2019-04-01T05:10:32.337Z,-2.74
2019-04-01T05:11:32.342Z,-2.71
2019-04-01T05:12:32.312Z,-2.70
2019-04-01T05:13:32.302Z,-2.76
2019-04-01T05:14:32.292Z,-2.77
2019-04-01T05:15:32.287Z,-2.73
2019-04-01T05:16:32.301Z,-2.60
2019-04-01T05:17:32.260Z,-2.70
2019-04-01T05:18:32.251Z,-2.66
2019-04-01T05:19:32.245Z,-2.52
2019-04-01T05:20:32.234Z,-2.59
2019-04-01T05:21:32.252Z,-2.55
2019-04-01T05:22:32.213Z,-2.56
2019-04-01T05:23:32.203Z,-2.38
2019-04-01T05:24:32.198Z,-2.42
2019-04-01T05:25:32.193Z,-2.34
2019-04-01T05:26:32.213Z,-2.37
2019-04-01T05:27:32.324Z,-2.23
2019-04-01T05:28:32.384Z,-2.22
2019-04-01T05:29:32.222Z,-2.19
2019-04-01T05:30:32.292Z,-2.19
2019-04-01T05:31:32.297Z,-2.08
2019-04-01T05:32:32.177Z,-2.08
2019-04-01T05:33:32.125Z,-2.10
2019-04-01T05:34:32.329Z,-2.04
2019-04-01T05:35:32.074Z,-2.07
2019-04-01T05:36:32.084Z,-2.12
2019-04-01T05:37:32.058Z,-2.02
2019-04-01T05:38:32.051Z,-2.00
2019-04-01T05:39:32.064Z,-2.18
2019-04-01T05:40:32.041Z,-2.16
2019-04-01T05:41:32.033Z,-2.07
2019-04-01T05:42:32.036Z,-2.10
2019-04-01T05:43:31.994Z,-2.13
2019-04-01T05:44:31.997Z,-2.18
2019-04-01T05:45:31.968Z,-2.15
2019-04-01T05:46:31.974Z,-2.12
2019-04-01T05:47:31.977Z,-2.08
2019-04-01T05:48:31.956Z,-1.98
2019-04-01T05:49:31.933Z,-2.07
2019-04-01T05:50:31.916Z,-2.10
2019-04-01T05:51:31.916Z,-2.07
2019-04-01T05:52:31.926Z,-2.05
2019-04-01T05:53:31.897Z,-2.00
2019-04-01T05:54:31.876Z,-1.83
2019-04-01T05:55:31.865Z,-1.79
2019-04-01T05:56:31.855Z,-1.79
2019-04-01T05:57:31.847Z,-1.77
2019-04-01T05:58:31.860Z,-1.79
2019-04-01T05:59:31.824Z,-1.68
2019-04-01T06:00:31.814Z,-1.65
2019-04-01T06:01:31.965Z,-1.61
2019-04-01T06:02:32.104Z,-1.72
2019-04-01T06:03:31.878Z,-1.56
2019-04-01T06:04:31.982Z,-1.47
2019-04-01T06:05:31.801Z,-1.47
2019-04-01T06:06:31.796Z,-1.61
2019-04-01T06:07:31.848Z,-1.64
2019-04-01T06:08:32.334Z,-1.53
2019-04-01T06:09:31.795Z,-1.51
2019-04-01T06:10:31.854Z,-1.46
2019-04-01T06:11:31.813Z,-1.46
2019-04-01T06:12:31.689Z,-1.33
2019-04-01T06:13:31.719Z,-1.35
2019-04-01T06:14:31.736Z,-1.23
2019-04-01T06:15:31.715Z,-1.22
2019-04-01T06:16:31.689Z,-1.07
2019-04-01T06:17:31.681Z,-0.86
2019-04-01T06:18:31.642Z,-0.75
2019-04-01T06:19:31.719Z,-0.78
2019-04-01T06:20:31.664Z,-0.68
2019-04-01T06:21:31.591Z,-0.68
2019-04-01T06:22:31.729Z,-0.56
2019-04-01T06:23:31.605Z,-0.39
2019-04-01T06:24:31.715Z,-0.43
2019-04-01T06:25:32.027Z,-0.32
2019-04-01T06:26:31.674Z,-0.32
2019-04-01T06:27:32.055Z,-0.15
2019-04-01T06:28:31.605Z,-0.08
2019-04-01T06:29:31.544Z,-0.06
2019-04-01T06:30:31.584Z,0.05
2019-04-01T06:31:31.506Z,0.08
2019-04-01T06:32:31.684Z,0.23
2019-04-01T06:33:31.520Z,0.12
2019-04-01T06:34:31.675Z,0.28
2019-04-01T06:35:31.468Z,0.25
2019-04-01T06:36:31.527Z,0.41
2019-04-01T06:37:31.519Z,0.55
2019-04-01T06:38:31.434Z,0.63
2019-04-01T06:39:31.428Z,0.63
2019-04-01T06:40:31.403Z,0.60
2019-04-01T06:41:31.383Z,0.70
2019-04-01T06:42:31.414Z,0.95
2019-04-01T06:43:31.357Z,1.06
2019-04-01T06:44:31.436Z,1.12
2019-04-01T06:45:31.348Z,1.06
2019-04-01T06:46:31.348Z,1.31
2019-04-01T06:47:31.399Z,1.38
2019-04-01T06:48:31.338Z,1.26
2019-04-01T06:49:31.304Z,1.32
2019-04-01T06:50:31.306Z,1.31
2019-04-01T06:51:31.365Z,1.26
2019-04-01T06:52:31.454Z,1.49
2019-04-01T06:53:31.432Z,1.42
2019-04-01T06:54:31.403Z,1.56
2019-04-01T06:55:31.226Z,1.63
2019-04-01T06:56:31.212Z,1.59
2019-04-01T06:57:31.322Z,1.73
2019-04-01T06:58:31.292Z,1.88
2019-04-01T06:59:31.258Z,1.91
2019-04-01T07:00:31.322Z,1.95
2019-04-01T07:01:31.312Z,1.97
2019-04-01T07:02:31.255Z,1.91
2019-04-01T07:03:31.219Z,1.88
2019-04-01T07:04:31.289Z,1.94
2019-04-01T07:05:31.151Z,2.00
2019-04-01T07:06:31.151Z,1.95
2019-04-01T07:07:31.140Z,2.02
2019-04-01T07:08:31.440Z,2.07
2019-04-01T07:09:31.170Z,2.10
2019-04-01T07:10:31.102Z,2.25
2019-04-01T07:11:31.134Z,2.28
2019-04-01T07:12:31.171Z,2.33
2019-04-01T07:13:31.109Z,2.39
2019-04-01T07:14:31.158Z,2.46
2019-04-01T07:15:31.027Z,2.47
2019-04-01T07:16:31.333Z,2.50
2019-04-01T07:17:31.101Z,2.42
2019-04-01T07:18:31.054Z,2.50
2019-04-01T07:19:31.053Z,2.54
2019-04-01T07:20:31.041Z,2.69
2019-04-01T07:21:30.965Z,2.82
2019-04-01T07:22:30.943Z,2.97
2019-04-01T07:23:30.936Z,2.93
2019-04-01T07:24:30.975Z,3.10
2019-04-01T07:25:33.921Z,3.04
2019-04-01T07:26:30.893Z,3.07
2019-04-01T07:27:30.918Z,3.14
2019-04-01T07:28:30.946Z,3.13
2019-04-01T07:29:30.887Z,3.21
2019-04-01T07:30:30.898Z,3.25
2019-04-01T07:31:30.862Z,3.23
2019-04-01T07:32:30.877Z,3.40
2019-04-01T07:33:30.840Z,3.34
2019-04-01T07:34:30.836Z,3.48
2019-04-01T07:35:30.829Z,3.63
2019-04-01T07:36:30.860Z,3.68
2019-04-01T07:37:30.799Z,3.76
2019-04-01T07:38:30.791Z,3.81
2019-04-01T07:39:30.783Z,3.92
2019-04-01T07:40:30.790Z,4.05
2019-04-01T07:41:30.759Z,4.17
2019-04-01T07:42:30.824Z,4.32
2019-04-01T07:43:30.753Z,4.38
2019-04-01T07:44:30.705Z,4.34
2019-04-01T07:45:30.710Z,4.44
2019-04-01T07:46:30.721Z,4.49
2019-04-01T07:47:30.735Z,4.63
2019-04-01T07:48:30.761Z,4.60
2019-04-01T07:49:30.746Z,4.70
2019-04-01T07:50:30.671Z,4.84
2019-04-01T07:51:30.966Z,4.86
2019-04-01T07:52:30.629Z,4.93
2019-04-01T07:53:30.813Z,4.92
2019-04-01T07:54:30.603Z,4.99
2019-04-01T07:55:30.665Z,5.05
2019-04-01T07:56:30.649Z,5.17
2019-04-01T07:57:32.622Z,5.11
2019-04-01T07:58:30.585Z,5.21
2019-04-01T07:59:30.618Z,5.33
2019-04-01T08:00:30.602Z,5.35
2019-04-01T08:01:30.531Z,5.43
2019-04-01T08:02:30.505Z,5.38
2019-04-01T08:03:30.502Z,5.53
2019-04-01T08:04:30.510Z,5.48
2019-04-01T08:05:30.568Z,5.54
2019-04-01T08:06:30.567Z,5.66
2019-04-01T08:07:30.499Z,5.69
2019-04-01T08:08:30.487Z,5.66
2019-04-01T08:09:30.514Z,5.76
2019-04-01T08:10:30.453Z,5.84
2019-04-01T08:11:30.430Z,5.83
2019-04-01T08:12:30.409Z,5.89
2019-04-01T08:13:30.459Z,5.98
2019-04-01T08:14:30.411Z,6.07
2019-04-01T08:15:30.391Z,6.17
2019-04-01T08:16:30.352Z,6.24
2019-04-01T08:17:30.430Z,6.41
2019-04-01T08:18:33.792Z,6.42
2019-04-01T08:19:30.334Z,6.62
2019-04-01T08:20:30.321Z,6.59
2019-04-01T08:21:30.328Z,6.66
2019-04-01T08:22:30.399Z,6.69
2019-04-01T08:23:30.415Z,6.72
2019-04-01T08:24:30.277Z,6.89
2019-04-01T08:25:30.254Z,6.88
2019-04-01T08:26:30.341Z,7.00
2019-04-01T08:27:30.378Z,7.00
2019-04-01T08:28:30.307Z,6.95
2019-04-01T08:29:30.950Z,7.14
2019-04-01T08:30:30.216Z,7.06
2019-04-01T08:31:30.281Z,7.36
2019-04-01T08:32:30.346Z,7.50
2019-04-01T08:33:30.282Z,7.53
2019-04-01T08:34:30.268Z,7.75
2019-04-01T08:35:30.166Z,7.98
2019-04-01T08:36:30.382Z,8.06
2019-04-01T08:37:30.280Z,8.03
2019-04-01T08:38:30.148Z,8.18
2019-04-01T08:39:30.391Z,8.20
2019-04-01T08:40:30.167Z,8.23
2019-04-01T08:41:30.095Z,8.19
2019-04-01T08:42:30.463Z,8.06
2019-04-01T08:43:30.280Z,8.08
2019-04-01T08:44:30.105Z,8.18
2019-04-01T08:45:30.047Z,8.24
2019-04-01T08:46:30.059Z,8.12
2019-04-01T08:47:30.042Z,8.08
2019-04-01T08:48:30.120Z,8.19
2019-04-01T08:49:30.016Z,8.24
2019-04-01T08:50:30.108Z,8.30
2019-04-01T08:51:30.082Z,8.36
2019-04-01T08:52:29.979Z,8.45
2019-04-01T08:53:30.027Z,8.36
2019-04-01T08:54:29.959Z,8.37
2019-04-01T08:55:29.943Z,8.49
2019-04-01T08:56:29.957Z,8.48
2019-04-01T08:57:29.925Z,8.51
2019-04-01T08:58:29.914Z,8.64
2019-04-01T08:59:30.223Z,8.67
2019-04-01T09:00:29.908Z,8.73
2019-04-01T09:01:35.443Z,8.89
2019-04-01T09:02:30.869Z,8.74
2019-04-01T09:03:29.852Z,8.89
2019-04-01T09:04:29.881Z,9.00
2019-04-01T09:05:30.032Z,9.00
2019-04-01T09:06:31.400Z,9.00
2019-04-01T09:07:29.849Z,9.19
2019-04-01T09:08:29.826Z,9.26
2019-04-01T09:09:29.904Z,9.44
2019-04-01T09:10:30.042Z,9.36
2019-04-01T09:11:29.779Z,9.54
2019-04-01T09:12:29.813Z,9.54
2019-04-01T09:13:29.816Z,9.64
2019-04-01T09:14:29.807Z,9.64
2019-04-01T09:15:29.713Z,9.68
2019-04-01T09:16:29.781Z,9.68
2019-04-01T09:17:29.761Z,9.66
2019-04-01T09:18:29.693Z,9.68
2019-04-01T09:19:29.730Z,9.69
2019-04-01T09:20:29.726Z,9.68
2019-04-01T09:21:29.912Z,9.62
2019-04-01T09:22:30.106Z,9.68
2019-04-01T09:23:29.717Z,9.69
2019-04-01T09:24:29.726Z,9.79
2019-04-01T09:25:29.602Z,9.82
2019-04-01T09:26:29.642Z,9.84
2019-04-01T09:27:29.642Z,9.91
2019-04-01T09:28:29.595Z,10.02
2019-04-01T09:29:29.575Z,9.99
2019-04-01T09:30:29.582Z,10.12
2019-04-01T09:31:29.610Z,10.12
2019-04-01T09:32:29.601Z,10.19
2019-04-01T09:33:29.554Z,10.16
2019-04-01T09:34:29.530Z,10.30
2019-04-01T09:35:29.515Z,10.53
2019-04-01T09:36:29.493Z,10.51
2019-04-01T09:37:29.530Z,10.72
2019-04-01T09:38:29.520Z,10.76
2019-04-01T09:39:29.535Z,10.78
2019-04-01T09:40:29.446Z,10.78
2019-04-01T09:41:29.456Z,10.71
2019-04-01T09:42:29.422Z,10.75
2019-04-01T09:43:29.425Z,10.69
2019-04-01T09:44:36.798Z,10.79
2019-04-01T09:45:30.481Z,10.84
2019-04-01T09:46:29.540Z,10.84
2019-04-01T09:47:29.356Z,10.93
2019-04-01T09:48:29.691Z,11.00
2019-04-01T09:49:29.375Z,10.87
2019-04-01T09:50:29.345Z,11.04
2019-04-01T09:51:29.337Z,11.04
2019-04-01T09:52:29.434Z,11.07
2019-04-01T09:53:29.309Z,10.97
2019-04-01T09:54:29.315Z,10.99
2019-04-01T09:55:29.295Z,11.08
2019-04-01T09:56:29.381Z,11.14
2019-04-01T09:57:29.297Z,11.29
2019-04-01T09:58:29.253Z,11.41
2019-04-01T09:59:29.332Z,11.35
2019-04-01T10:00:29.387Z,11.44
2019-04-01T10:01:29.256Z,11.41
2019-04-01T10:02:32.160Z,11.43
2019-04-01T10:03:29.317Z,11.41
2019-04-01T10:04:29.186Z,11.57
2019-04-01T10:05:29.405Z,11.65
2019-04-01T10:06:29.208Z,11.69
2019-04-01T10:07:29.199Z,11.68
2019-04-01T10:08:41.399Z,11.66
2019-04-01T10:09:30.192Z,11.75
2019-04-01T10:10:29.418Z,11.69
2019-04-01T10:11:29.268Z,11.80
2019-04-01T10:12:29.136Z,11.84
2019-04-01T10:13:29.159Z,12.09
2019-04-01T10:14:29.105Z,12.13
2019-04-01T10:15:29.154Z,12.20
2019-04-01T10:16:29.149Z,12.22
2019-04-01T10:17:29.181Z,11.94
2019-04-01T10:18:29.851Z,11.86
2019-04-01T10:19:29.051Z,11.70
2019-04-01T10:20:29.010Z,11.68
2019-04-01T10:21:29.133Z,11.77
2019-04-01T10:22:29.430Z,11.91
2019-04-01T10:23:29.042Z,11.90
2019-04-01T10:24:29.124Z,11.95
2019-04-01T10:25:28.979Z,11.95
2019-04-01T10:26:28.951Z,12.07
2019-04-01T10:27:28.969Z,12.37
2019-04-01T10:28:32.030Z,12.46
2019-04-01T10:29:29.033Z,12.70
2019-04-01T10:30:28.903Z,12.68
2019-04-01T10:31:28.887Z,12.83
2019-04-01T10:32:28.892Z,12.82
2019-04-01T10:33:28.906Z,12.79
2019-04-01T10:34:28.852Z,12.65
2019-04-01T10:35:28.914Z,12.67
2019-04-01T10:36:28.857Z,12.58
2019-04-01T10:37:28.835Z,12.46
2019-04-01T10:38:28.815Z,12.49
2019-04-01T10:39:29.001Z,12.57
2019-04-01T10:40:28.795Z,12.46
2019-04-01T10:41:29.190Z,12.58
2019-04-01T10:42:28.827Z,12.64
2019-04-01T10:43:28.957Z,12.64
2019-04-01T10:44:28.798Z,12.67
2019-04-01T10:45:28.794Z,12.70
2019-04-01T10:46:28.818Z,12.82
2019-04-01T10:47:28.759Z,12.82
2019-04-01T10:48:28.780Z,12.86
2019-04-01T10:49:31.948Z,12.80
2019-04-01T10:50:28.902Z,12.91
2019-04-01T10:51:28.855Z,12.98
2019-04-01T10:52:28.772Z,12.95
2019-04-01T10:53:28.739Z,12.98
2019-04-01T10:54:28.806Z,13.00
2019-04-01T10:55:29.186Z,13.03
2019-04-01T10:56:28.780Z,13.11
2019-04-01T10:57:28.738Z,13.18
2019-04-01T10:58:28.624Z,13.18
2019-04-01T10:59:28.711Z,13.20
2019-04-01T11:00:28.657Z,13.22
2019-04-01T11:01:28.792Z,13.39
2019-04-01T11:02:28.635Z,13.46
2019-04-01T11:03:28.686Z,13.47
2019-04-01T11:04:28.583Z,13.39
2019-04-01T11:05:28.543Z,13.44
2019-04-01T11:06:28.536Z,13.38
2019-04-01T11:07:28.636Z,13.41
2019-04-01T11:08:28.638Z,13.35
2019-04-01T11:09:38.061Z,13.25
2019-04-01T11:10:29.553Z,13.19
2019-04-01T11:11:28.574Z,13.19
2019-04-01T11:12:28.463Z,13.28
2019-04-01T11:13:28.542Z,13.39
2019-04-01T11:14:28.473Z,13.42
2019-04-01T11:15:28.420Z,13.60
2019-04-01T11:16:31.608Z,13.72
2019-04-01T11:17:28.399Z,13.79
2019-04-01T11:18:28.473Z,13.83
2019-04-01T11:19:28.442Z,13.75
2019-04-01T11:20:28.388Z,13.75
2019-04-01T11:21:28.391Z,13.79
2019-04-01T11:22:28.359Z,13.83
2019-04-01T11:23:28.319Z,13.81
2019-04-01T11:24:28.444Z,13.97
2019-04-01T11:25:28.636Z,14.10
2019-04-01T11:26:28.351Z,14.18
2019-04-01T11:27:28.271Z,14.37
2019-04-01T11:28:28.313Z,14.25
2019-04-01T11:29:28.308Z,14.26
2019-04-01T11:30:28.255Z,14.35
2019-04-01T11:31:28.322Z,14.23
2019-04-01T11:32:28.285Z,14.30
2019-04-01T11:33:28.398Z,14.25
2019-04-01T11:34:28.250Z,14.28
2019-04-01T11:35:28.239Z,14.37
2019-04-01T11:36:28.167Z,14.43
2019-04-01T11:37:28.187Z,14.41
2019-04-01T11:38:28.206Z,14.45
2019-04-01T11:39:28.256Z,14.45
2019-04-01T11:40:28.452Z,14.51
2019-04-01T11:41:28.203Z,14.59
2019-04-01T11:42:28.345Z,14.58
2019-04-01T11:43:28.189Z,14.62
2019-04-01T11:44:28.216Z,14.81
2019-04-01T11:45:28.500Z,14.97
2019-04-01T11:46:28.060Z,14.94
2019-04-01T11:47:28.093Z,15.27
2019-04-01T11:48:28.049Z,15.40
2019-04-01T11:49:28.577Z,15.59
2019-04-01T11:50:28.226Z,15.91
2019-04-01T11:51:32.955Z,16.24
2019-04-01T11:52:29.041Z,16.41
2019-04-01T11:53:27.986Z,16.43
2019-04-01T11:54:28.211Z,16.51
2019-04-01T11:55:28.256Z,16.66
2019-04-01T11:56:27.947Z,16.90
2019-04-01T11:57:28.033Z,16.91
2019-04-01T11:58:28.125Z,16.84
2019-04-01T11:59:28.042Z,16.96
2019-04-01T12:00:28.056Z,17.02
2019-04-01T12:01:27.972Z,17.19
2019-04-01T12:02:27.926Z,17.30
2019-04-01T12:03:27.884Z,17.33
2019-04-01T12:04:27.889Z,17.05
2019-04-01T12:05:27.859Z,17.29
2019-04-01T12:06:27.872Z,17.42
2019-04-01T12:07:28.098Z,17.56
2019-04-01T12:08:27.876Z,17.57
2019-04-01T12:09:28.173Z,17.49
2019-04-01T12:10:27.873Z,17.33
2019-04-01T12:11:27.825Z,17.36
2019-04-01T12:12:27.823Z,17.56
2019-04-01T12:13:28.938Z,17.68
2019-04-01T12:14:27.750Z,17.26
2019-04-01T12:15:27.940Z,17.19
2019-04-01T12:16:27.853Z,17.44
2019-04-01T12:17:28.855Z,17.67
2019-04-01T12:18:27.737Z,17.85
2019-04-01T12:19:27.834Z,17.90
2019-04-01T12:20:27.795Z,18.08
2019-04-01T12:21:27.709Z,18.08
2019-04-01T12:22:27.708Z,17.92
2019-04-01T12:23:27.729Z,17.83
2019-04-01T12:24:27.718Z,17.82
2019-04-01T12:25:27.983Z,17.64
2019-04-01T12:26:27.770Z,17.65
2019-04-01T12:27:27.623Z,17.80
2019-04-01T12:28:27.698Z,17.85
2019-04-01T12:29:27.646Z,17.60
2019-04-01T12:30:27.585Z,17.54
2019-04-01T12:31:27.638Z,17.59
2019-04-01T12:32:27.651Z,17.92
2019-04-01T12:33:27.556Z,18.01
2019-04-01T12:34:27.549Z,17.95
2019-04-01T12:35:27.522Z,18.18
2019-04-01T12:36:27.709Z,18.01
2019-04-01T12:37:30.035Z,18.07
2019-04-01T12:38:27.509Z,18.34
2019-04-01T12:39:27.535Z,18.62
2019-04-01T12:40:27.492Z,18.77
2019-04-01T12:41:28.225Z,18.50
2019-04-01T12:42:27.464Z,18.25
2019-04-01T12:43:27.469Z,17.98
2019-04-01T12:44:27.432Z,17.65
2019-04-01T12:45:27.436Z,17.59
2019-04-01T12:46:27.395Z,17.67
2019-04-01T12:47:27.389Z,17.70
2019-04-01T12:48:27.394Z,17.67
2019-04-01T12:49:27.525Z,17.79
2019-04-01T12:50:27.634Z,17.83
2019-04-01T12:51:27.602Z,17.83
2019-04-01T12:52:27.520Z,18.01
2019-04-01T12:53:27.543Z,18.11
2019-04-01T12:54:27.338Z,17.86
2019-04-01T12:55:27.399Z,17.56
2019-04-01T12:56:27.289Z,17.64
2019-04-01T12:57:27.280Z,17.59
2019-04-01T12:58:27.505Z,17.79
2019-04-01T12:59:27.658Z,17.97
2019-04-01T13:00:29.115Z,18.08
2019-04-01T13:01:27.278Z,18.18
2019-04-01T13:02:27.228Z,18.11
2019-04-01T13:03:27.298Z,18.34